Time;durP1;ratioP1;P1;durP2;ratioP2;P2;SDS_P1;SDS_P2;PMS_P1;PMS_P2;Temp;Humidity;BMP_temperature;BMP_pressure;BME280_temperature;BME280_humidity;BME280_pressure;Samples;Min_cycle;Max_cycle;Signal;HPM_P1;HPM_P2
2023/10/11 00:00:39;;;;;;;10.30;10.00;;;11.90;99.90;;;;;;5041396;28;20239;-79
2023/10/11 00:03:15;;;;;;;10.20;9.90;;;11.90;99.90;;;;;;5040913;28;20239;-79
2023/10/11 00:05:46;;;;;;;10.10;9.80;;;11.90;99.90;;;;;;5040515;28;20228;-78
2023/10/11 00:08:16;;;;;;;10.00;9.70;;;12.00;99.90;;;;;;5041150;28;20253;-78
2023/10/11 00:10:55;;;;;;;10.30;10.00;;;12.00;99.90;;;;;;5040692;28;20239;-79
2023/10/11 00:13:24;;;;;;;9.90;9.60;;;12.10;99.90;;;;;;5040924;28;20231;-78
2023/10/11 00:15:53;;;;;;;10.10;9.80;;;12.10;99.90;;;;;;5041996;28;20234;-78
2023/10/11 00:18:26;;;;;;;10.20;9.90;;;12.20;99.90;;;;;;5040891;28;20249;-80
2023/10/11 00:20:58;;;;;;;10.00;9.70;;;12.20;99.90;;;;;;5042613;28;20265;-78
2023/10/11 00:23:31;;;;;;;10.00;9.70;;;12.30;99.90;;;;;;5041169;28;20322;-79
2023/10/11 00:26:00;;;;;;;10.30;10.00;;;12.30;99.90;;;;;;5041173;28;20240;-78
2023/10/11 00:28:31;;;;;;;10.27;9.97;;;12.30;99.90;;;;;;5040787;28;20236;-79
2023/10/11 00:31:01;;;;;;;10.03;9.73;;;12.30;99.90;;;;;;5041019;28;20231;-79
2023/10/11 00:33:28;;;;;;;9.80;9.50;;;12.30;99.90;;;;;;5040272;28;20230;-78
2023/10/11 00:36:04;;;;;;;10.20;9.90;;;12.30;99.90;;;;;;5040290;28;20318;-78
2023/10/11 00:38:32;;;;;;;10.00;9.70;;;12.40;99.90;;;;;;5040793;28;20270;-79
2023/10/11 00:41:07;;;;;;;10.20;9.90;;;12.40;99.90;;;;;;5040886;28;20231;-78
2023/10/11 00:43:38;;;;;;;10.00;9.70;;;12.30;99.90;;;;;;5040384;28;20285;-79
2023/10/11 00:46:08;;;;;;;10.00;9.70;;;12.30;99.90;;;;;;5040599;28;20287;-80
2023/10/11 00:48:38;;;;;;;10.10;9.80;;;12.30;99.90;;;;;;5040468;28;20239;-79
2023/10/11 00:51:10;;;;;;;9.67;9.37;;;12.30;99.90;;;;;;5040988;28;20231;-78
2023/10/11 00:53:37;;;;;;;9.67;9.37;;;12.30;99.90;;;;;;5040489;28;20231;-79
2023/10/11 00:56:06;;;;;;;9.70;9.40;;;12.30;99.90;;;;;;5040660;28;20287;-78
2023/10/11 00:58:33;;;;;;;9.90;9.60;;;12.20;99.90;;;;;;5041062;28;20740;-78
2023/10/11 01:01:03;;;;;;;10.00;9.70;;;12.20;99.90;;;;;;5042260;28;20305;-79
2023/10/11 01:03:33;;;;;;;10.07;9.77;;;12.20;99.90;;;;;;5043488;28;20241;-78
2023/10/11 01:06:03;;;;;;;9.90;9.60;;;12.10;99.90;;;;;;5060356;28;20317;-79
2023/10/11 01:08:38;;;;;;;9.70;9.40;;;12.20;99.90;;;;;;5061346;28;20226;-78
2023/10/11 01:11:12;;;;;;;9.90;9.60;;;12.10;99.90;;;;;;5060770;28;20222;-79
2023/10/11 01:13:40;;;;;;;10.10;9.80;;;12.10;99.90;;;;;;5061727;28;21190;-78
2023/10/11 01:16:10;;;;;;;9.80;9.50;;;12.10;99.90;;;;;;5061621;28;20239;-78
2023/10/11 01:18:38;;;;;;;9.80;9.50;;;12.10;99.90;;;;;;5064015;28;20538;-78
2023/10/11 01:21:07;;;;;;;9.63;9.33;;;12.10;99.90;;;;;;5064733;28;20234;-79
2023/10/11 01:23:35;;;;;;;9.80;9.50;;;12.10;99.90;;;;;;5064758;28;20237;-79
2023/10/11 01:26:09;;;;;;;9.80;9.50;;;12.10;99.90;;;;;;5063446;28;20226;-79
2023/10/11 01:28:38;;;;;;;9.90;9.60;;;12.10;99.90;;;;;;5063987;28;20298;-78
2023/10/11 01:33:49;;;;;;;10.00;9.70;;;12.00;99.90;;;;;;5064188;28;20222;-78
2023/10/11 01:36:22;;;;;;;9.90;9.60;;;12.00;99.90;;;;;;5066364;28;20215;-78
2023/10/11 01:38:50;;;;;;;9.80;9.50;;;12.00;99.90;;;;;;5065554;28;20302;-78
2023/10/11 01:41:20;;;;;;;9.93;9.63;;;11.90;99.90;;;;;;5064946;28;20227;-79
2023/10/11 01:43:49;;;;;;;10.03;9.73;;;11.80;99.90;;;;;;5064037;28;20245;-78
2023/10/11 01:46:24;;;;;;;9.87;9.57;;;11.80;99.90;;;;;;5065305;28;20215;-78
2023/10/11 01:48:54;;;;;;;9.97;9.67;;;11.70;99.90;;;;;;5063993;28;20237;-79
2023/10/11 01:51:26;;;;;;;9.90;9.60;;;11.70;99.90;;;;;;5063232;28;20330;-78
2023/10/11 01:53:56;;;;;;;10.00;9.70;;;11.70;99.90;;;;;;5063076;28;20238;-79
2023/10/11 01:56:26;;;;;;;9.80;9.50;;;11.70;99.90;;;;;;5063362;28;20237;-78
2023/10/11 01:58:56;;;;;;;10.00;9.70;;;11.80;99.90;;;;;;5063953;28;20235;-79
2023/10/11 02:01:26;;;;;;;9.80;9.50;;;11.80;99.90;;;;;;5064603;28;20325;-77
2023/10/11 02:03:59;;;;;;;9.83;9.53;;;11.80;99.90;;;;;;5063603;28;20223;-78
2023/10/11 02:06:32;;;;;;;9.67;9.37;;;11.80;99.90;;;;;;5064283;28;20218;-79
2023/10/11 02:09:01;;;;;;;9.73;9.43;;;11.80;99.90;;;;;;5064642;28;20239;-79
2023/10/11 02:11:30;;;;;;;9.73;9.43;;;11.80;99.90;;;;;;5063178;28;20262;-78
2023/10/11 02:14:00;;;;;;;10.00;9.70;;;11.90;99.90;;;;;;5062412;28;20237;-77
2023/10/11 02:16:32;;;;;;;9.90;9.60;;;11.90;99.90;;;;;;5067344;28;20223;-78
2023/10/11 02:18:59;;;;;;;9.70;9.40;;;11.90;99.90;;;;;;5071634;28;20246;-79
2023/10/11 02:21:29;;;;;;;9.80;9.50;;;11.90;99.90;;;;;;5062937;28;20241;-79
2023/10/11 02:23:58;;;;;;;9.80;9.50;;;12.00;99.90;;;;;;5070734;28;20266;-78
2023/10/11 02:26:28;;;;;;;10.00;9.70;;;12.00;99.90;;;;;;5062735;28;20235;-80
2023/10/11 02:29:00;;;;;;;9.70;9.40;;;12.00;99.90;;;;;;5062201;28;20266;-79
2023/10/11 02:31:31;;;;;;;9.80;9.50;;;12.00;99.90;;;;;;5062349;28;20235;-78
2023/10/11 02:34:06;;;;;;;9.77;9.47;;;12.00;99.90;;;;;;5062437;28;20227;-79
2023/10/11 02:36:37;;;;;;;9.43;9.13;;;12.10;99.90;;;;;;5062626;28;20226;-79
2023/10/11 02:39:05;;;;;;;9.67;9.37;;;12.00;99.90;;;;;;5062632;28;20238;-78
2023/10/11 02:41:37;;;;;;;9.40;9.10;;;12.10;99.90;;;;;;5070801;28;20292;-79
2023/10/11 02:44:04;;;;;;;9.47;9.17;;;12.10;99.90;;;;;;5062549;28;20230;-78
2023/10/11 02:46:34;;;;;;;9.50;9.20;;;12.10;99.90;;;;;;5062478;28;20254;-80
2023/10/11 02:49:05;;;;;;;9.27;8.97;;;12.10;99.90;;;;;;5064341;28;20234;-79
2023/10/11 02:51:35;;;;;;;9.70;9.40;;;12.10;99.90;;;;;;5064905;28;20261;-79
2023/10/11 02:54:04;;;;;;;9.70;9.40;;;12.10;99.90;;;;;;5063582;28;20237;-79
2023/10/11 02:56:39;;;;;;;9.60;9.30;;;12.10;99.90;;;;;;5063586;28;20229;-79
2023/10/11 02:59:11;;;;;;;9.70;9.40;;;12.10;99.90;;;;;;5063685;28;20238;-79
2023/10/11 03:01:39;;;;;;;9.70;9.40;;;12.10;99.90;;;;;;5063987;28;20234;-79
2023/10/11 03:04:08;;;;;;;9.20;8.90;;;12.10;99.90;;;;;;5063883;28;20261;-79
2023/10/11 03:06:47;;;;;;;9.60;9.30;;;12.10;99.90;;;;;;5063680;28;20246;-79
2023/10/11 03:09:18;;;;;;;9.40;9.10;;;12.00;99.90;;;;;;5064217;28;20237;-78
2023/10/11 03:11:46;;;;;;;9.67;9.37;;;12.00;99.90;;;;;;5063583;28;20235;-79
2023/10/11 03:14:14;;;;;;;9.90;9.60;;;12.00;99.90;;;;;;5061453;28;20294;-79
2023/10/11 03:16:43;;;;;;;9.97;9.67;;;12.00;99.90;;;;;;5063130;28;20285;-79
2023/10/11 03:19:23;;;;;;;9.60;9.30;;;12.00;99.90;;;;;;5060686;28;20249;-78
2023/10/11 03:21:54;;;;;;;9.30;9.00;;;12.00;99.90;;;;;;5061384;28;20234;-79
2023/10/11 03:24:25;;;;;;;9.30;9.00;;;12.00;99.90;;;;;;5061502;28;20242;-78
2023/10/11 03:26:52;;;;;;;9.20;8.90;;;12.00;99.90;;;;;;5062341;28;20225;-78
2023/10/11 03:29:21;;;;;;;9.17;8.87;;;12.00;99.90;;;;;;5069743;28;20295;-78
2023/10/11 03:31:49;;;;;;;8.80;8.60;;;11.90;99.90;;;;;;5069110;28;20241;-78
2023/10/11 03:34:19;;;;;;;9.00;8.70;;;12.00;99.90;;;;;;5081333;28;20234;-79
2023/10/11 03:36:51;;;;;;;9.10;8.80;;;11.90;99.90;;;;;;5082042;28;20230;-79
2023/10/11 03:39:28;;;;;;;9.17;8.87;;;12.00;99.90;;;;;;5081079;28;20238;-80
2023/10/11 03:42:06;;;;;;;9.10;8.80;;;11.90;99.90;;;;;;5081693;28;20238;-79
2023/10/11 03:44:36;;;;;;;9.00;8.70;;;11.90;99.90;;;;;;5081851;28;20307;-79
2023/10/11 03:47:07;;;;;;;9.23;8.93;;;11.90;99.90;;;;;;5081404;28;20263;-78
2023/10/11 03:49:50;;;;;;;9.50;9.20;;;11.90;99.90;;;;;;5082708;28;20240;-78
2023/10/11 03:52:22;;;;;;;9.30;9.00;;;11.90;99.90;;;;;;5083254;28;20276;-80
2023/10/11 03:55:05;;;;;;;9.50;9.20;;;11.90;99.90;;;;;;5081193;28;20230;-79
2023/10/11 03:57:36;;;;;;;9.70;9.40;;;11.90;99.90;;;;;;5063916;28;20226;-79
2023/10/11 04:00:24;;;;;;;9.40;9.10;;;11.90;99.90;;;;;;5062938;28;20269;-79
2023/10/11 04:02:56;;;;;;;9.10;8.80;;;11.90;99.90;;;;;;5071784;28;20226;-79
2023/10/11 04:05:28;;;;;;;9.20;8.90;;;12.00;99.90;;;;;;5074905;28;20234;-81
2023/10/11 04:07:56;;;;;;;9.17;8.87;;;12.00;99.90;;;;;;5081233;28;20262;-79
2023/10/11 04:10:38;;;;;;;9.30;9.00;;;12.00;99.90;;;;;;5075439;28;20230;-80
2023/10/11 04:13:24;;;;;;;8.90;8.70;;;12.00;99.90;;;;;;5082957;28;20230;-79
2023/10/11 04:16:07;;;;;;;8.60;8.40;;;12.00;99.90;;;;;;5130983;22;20242;-86
2023/10/11 04:18:37;;;;;;;8.83;8.63;;;12.00;99.90;;;;;;5067788;28;20318;-87
2023/10/11 04:21:25;;;;;;;9.20;8.90;;;12.00;99.90;;;;;;5083617;28;20226;-87
2023/10/11 04:26:41;;;;;;;8.60;8.40;;;12.10;99.90;;;;;;5043379;28;20246;-87
2023/10/11 04:29:16;;;;;;;8.70;8.50;;;12.10;99.90;;;;;;5057095;28;20278;-87
2023/10/11 04:32:09;;;;;;;8.70;8.50;;;12.10;99.90;;;;;;5066367;28;20222;-88
2023/10/11 04:34:38;;;;;;;8.60;8.40;;;12.10;99.90;;;;;;5043894;28;20231;-86
2023/10/11 04:37:07;;;;;;;8.60;8.40;;;12.10;99.90;;;;;;5066345;28;20211;-85
2023/10/11 04:39:43;;;;;;;8.43;8.23;;;12.10;99.90;;;;;;5069832;28;20222;-86
2023/10/11 04:42:14;;;;;;;8.70;8.50;;;12.10;99.90;;;;;;5066593;28;20257;-86
2023/10/11 04:44:47;;;;;;;8.50;8.30;;;12.10;99.90;;;;;;5066566;28;20239;-86
2023/10/11 04:52:37;;;;;;;8.80;8.60;;;12.00;99.90;;;;;;5073351;28;20226;-86
2023/10/11 05:03:37;;;;;;;8.60;8.40;;;12.00;99.90;;;;;;5067488;28;20237;-88
2023/10/11 05:06:15;;;;;;;8.70;8.50;;;12.00;99.90;;;;;;5066191;28;20234;-87
2023/10/11 05:11:43;;;;;;;8.57;8.37;;;12.00;99.90;;;;;;5065668;28;20223;-87
2023/10/11 05:16:59;;;;;;;8.93;8.67;;;12.00;99.90;;;;;;5067429;28;20230;-88
2023/10/11 05:22:23;;;;;;;9.20;8.90;;;12.00;99.90;;;;;;5074356;28;20213;-86
2023/10/11 05:27:47;;;;;;;9.20;8.90;;;12.00;99.90;;;;;;5065348;28;20230;-87
2023/10/11 05:30:26;;;;;;;9.40;9.10;;;12.00;99.90;;;;;;5064853;28;20294;-88
2023/10/11 05:33:14;;;;;;;9.30;9.00;;;12.00;99.90;;;;;;5066356;28;20278;-87
2023/10/11 05:36:13;;;;;;;9.63;9.33;;;12.00;99.90;;;;;;5065499;28;20277;-88
2023/10/11 05:52:33;;;;;;;9.40;9.10;;;12.00;99.90;;;;;;5064575;28;20426;-86
2023/10/11 05:55:09;;;;;;;8.80;8.60;;;12.00;99.90;;;;;;5064330;28;20237;-88
2023/10/11 05:57:48;;;;;;;8.97;8.70;;;12.10;99.90;;;;;;5069675;28;20230;-87
2023/10/11 06:00:23;;;;;;;8.90;8.70;;;12.10;99.90;;;;;;5066962;28;20245;-87
2023/10/11 06:05:42;;;;;;;9.27;8.97;;;12.20;99.90;;;;;;5067383;28;20278;-87
2023/10/11 06:08:15;;;;;;;8.87;8.67;;;12.20;99.90;;;;;;5067864;28;20223;-87
2023/10/11 06:10:43;;;;;;;9.20;8.90;;;12.20;99.90;;;;;;5068079;28;20238;-86
2023/10/11 06:13:22;;;;;;;9.30;9.00;;;12.20;99.90;;;;;;5067079;28;20265;-87
2023/10/11 06:15:59;;;;;;;9.30;9.00;;;12.30;99.90;;;;;;5067012;28;20230;-86
2023/10/11 06:21:31;;;;;;;9.20;8.90;;;12.30;99.90;;;;;;5068762;28;20230;-86
2023/10/11 06:27:52;;;;;;;8.83;8.63;;;12.40;99.90;;;;;;5068554;28;20218;-86
2023/10/11 06:29:53;;;;;;;8.90;8.70;;;12.40;99.90;;;;;;5069451;28;20325;-87
2023/10/11 06:32:22;;;;;;;8.97;8.73;;;12.40;99.90;;;;;;5069122;28;20235;-83
2023/10/11 06:37:40;;;;;;;9.50;9.20;;;12.40;99.90;;;;;;5069898;28;20215;-86
2023/10/11 06:40:13;;;;;;;9.50;9.20;;;12.50;99.90;;;;;;5073811;28;20227;-85
2023/10/11 06:42:40;;;;;;;9.50;9.20;;;12.60;99.90;;;;;;5064665;28;20242;-86
2023/10/11 06:45:17;;;;;;;9.70;9.40;;;12.60;99.90;;;;;;5047780;28;20227;-86
2023/10/11 06:47:47;;;;;;;10.00;9.70;;;12.70;99.90;;;;;;5048762;28;20376;-86
2023/10/11 06:50:24;;;;;;;9.80;9.50;;;12.70;99.90;;;;;;5052023;28;20274;-86
2023/10/11 06:53:06;;;;;;;9.73;9.43;;;12.70;99.90;;;;;;5052037;28;20224;-86
2023/10/11 06:55:35;;;;;;;9.77;9.47;;;12.70;99.90;;;;;;5048463;28;20235;-87
2023/10/11 06:58:09;;;;;;;9.70;9.40;;;12.80;99.90;;;;;;5047437;28;20223;-85
2023/10/11 07:00:45;;;;;;;9.63;9.33;;;12.90;99.90;;;;;;5048111;28;20234;-84
2023/10/11 07:09:05;;;;;;;9.80;9.50;;;12.90;99.90;;;;;;4970652;27;6250386;-82
2023/10/11 07:11:44;;;;;;;9.73;9.43;;;13.00;99.90;;;;;;5189239;27;20294;-84
2023/10/11 07:19:36;;;;;;;9.90;9.60;;;13.20;99.90;;;;;;5165637;27;20230;-85
2023/10/11 07:22:04;;;;;;;9.80;9.50;;;13.30;99.90;;;;;;5166678;27;20224;-82
2023/10/11 07:24:40;;;;;;;9.70;9.40;;;13.40;99.90;;;;;;5155659;27;20224;-84
2023/10/11 07:27:12;;;;;;;9.80;9.50;;;13.50;99.90;;;;;;5150614;27;20236;-85
2023/10/11 07:29:44;;;;;;;9.20;8.90;;;13.60;99.90;;;;;;5147735;27;20238;-85
2023/10/11 07:32:11;;;;;;;9.90;9.60;;;13.70;99.90;;;;;;5147752;27;20232;-85
2023/10/11 07:34:39;;;;;;;9.70;9.40;;;13.80;99.90;;;;;;5147082;27;20232;-84
2023/10/11 07:40:20;;;;;;;9.80;9.50;;;14.20;99.90;;;;;;5156706;27;1524414;-85
2023/10/11 07:45:31;;;;;;;9.82;9.52;;;14.50;99.90;;;;;;5180512;27;20231;-84
2023/10/11 07:48:03;;;;;;;9.77;9.48;;;14.70;99.90;;;;;;5168204;27;20253;-84
2023/10/11 07:50:32;;;;;;;10.10;9.80;;;14.90;99.90;;;;;;5167745;27;20314;-85
2023/10/11 07:53:01;;;;;;;10.13;9.82;;;15.00;99.90;;;;;;5168486;27;20255;-85
2023/10/11 07:55:30;;;;;;;10.32;10.02;;;15.10;99.90;;;;;;5167550;27;20250;-85
2023/10/11 07:58:16;;;;;;;10.20;9.90;;;15.30;99.90;;;;;;5168000;27;20231;-84
2023/10/11 08:00:44;;;;;;;10.13;9.82;;;15.40;99.90;;;;;;5167785;27;20275;-84
2023/10/11 08:03:24;;;;;;;10.38;10.07;;;15.60;99.90;;;;;;5167729;27;20224;-84
2023/10/11 08:05:53;;;;;;;10.50;10.20;;;15.70;99.90;;;;;;5166590;27;20297;-84
2023/10/11 08:08:21;;;;;;;10.30;10.00;;;15.80;99.90;;;;;;5167066;27;20222;-85
2023/10/11 08:10:54;;;;;;;10.18;9.88;;;15.90;99.90;;;;;;5164781;27;20233;-83
2023/10/11 08:13:32;;;;;;;10.18;9.88;;;16.10;99.90;;;;;;5151523;27;20228;-84
2023/10/11 08:16:04;;;;;;;10.05;9.75;;;16.20;99.90;;;;;;5145481;27;20236;-85
2023/10/11 08:21:24;;;;;;;10.43;10.13;;;16.50;99.90;;;;;;5147731;27;20212;-82
2023/10/11 08:23:54;;;;;;;10.40;10.10;;;16.60;99.90;;;;;;5151362;27;20246;-83
2023/10/11 08:29:27;;;;;;;10.38;10.07;;;17.00;99.90;;;;;;5151613;27;20224;-84
2023/10/11 08:31:57;;;;;;;10.30;10.00;;;17.30;99.90;;;;;;5166918;27;20294;-85
2023/10/11 08:34:27;;;;;;;10.38;10.07;;;17.50;99.90;;;;;;5171713;27;20287;-84
2023/10/11 08:37:07;;;;;;;10.40;10.10;;;17.70;99.90;;;;;;5169746;27;20231;-85
2023/10/11 08:39:41;;;;;;;10.30;10.00;;;18.00;99.90;;;;;;5174398;27;20233;-83
2023/10/11 08:42:14;;;;;;;10.40;10.10;;;18.20;99.90;;;;;;5172095;27;20239;-86
2023/10/11 08:44:45;;;;;;;10.23;9.93;;;18.40;99.90;;;;;;5162301;27;20222;-86
2023/10/11 08:47:16;;;;;;;10.20;9.90;;;18.60;99.90;;;;;;5163833;27;20287;-86
2023/10/11 08:52:29;;;;;;;10.30;10.00;;;19.00;99.90;;;;;;5140867;27;20234;-86
2023/10/11 08:54:59;;;;;;;10.45;10.15;;;19.30;99.90;;;;;;5148100;27;20234;-85
2023/10/11 09:03:22;;;;;;;10.30;10.00;;;20.10;99.90;;;;;;5146400;27;20250;-85
2023/10/11 09:05:58;;;;;;;10.63;10.32;;;20.40;99.90;;;;;;5148953;27;20254;-85
2023/10/11 09:14:22;;;;;;;10.70;10.40;;;21.20;99.90;;;;;;5150840;27;20291;-84
2023/10/11 09:16:51;;;;;;;10.65;10.35;;;21.50;99.90;;;;;;5151013;27;20239;-85
2023/10/11 09:19:29;;;;;;;10.20;9.90;;;21.80;99.90;;;;;;5149345;27;20239;-87
2023/10/11 09:22:05;;;;;;;10.48;10.18;;;22.10;99.90;;;;;;5149463;27;20228;-85
2023/10/11 09:27:22;;;;;;;10.30;10.00;;;22.80;99.90;;;;;;5158759;27;20239;-87
2023/10/11 09:29:54;;;;;;;10.30;10.00;;;23.10;99.90;;;;;;5532772;22;20224;-86
2023/10/11 09:35:26;;;;;;;10.52;10.23;;;23.70;99.90;;;;;;5148616;27;20216;-83
2023/10/11 09:41:00;;;;;;;10.70;10.40;;;24.30;99.90;;;;;;5157800;27;20223;-83
2023/10/11 09:43:32;;;;;;;10.48;10.18;;;24.60;99.90;;;;;;5160922;27;20227;-85
2023/10/11 09:46:29;;;;;;;10.40;10.10;;;24.70;99.90;;;;;;5152376;27;20232;-82
2023/10/11 09:51:52;;;;;;;10.40;10.10;;;25.10;99.90;;;;;;5145065;27;20228;-87
2023/10/11 09:54:38;;;;;;;10.70;10.40;;;25.20;99.90;;;;;;5151966;27;20216;-87
2023/10/11 09:57:35;;;;;;;10.73;10.43;;;25.40;99.90;;;;;;5150239;27;20289;-85
2023/10/11 10:00:23;;;;;;;10.35;10.05;;;25.70;99.90;;;;;;5149400;27;20287;-87
2023/10/11 10:06:18;;;;;;;10.30;10.00;;;26.40;99.90;;;;;;5134650;27;20209;-87
2023/10/11 10:08:59;;;;;;;10.02;9.73;;;26.70;99.90;;;;;;5153143;27;20232;-84
2023/10/11 10:12:22;;;;;;;10.07;9.77;;;26.90;99.90;;;;;;5160206;27;20228;-85
2023/10/11 10:18:20;;;;;;;10.23;9.93;;;26.90;99.90;;;;;;5116698;22;20325;-82
2023/10/11 10:20:49;;;;;;;10.32;10.02;;;26.90;99.90;;;;;;5085399;28;20233;-81
2023/10/11 10:23:29;;;;;;;10.48;10.18;;;27.10;99.90;;;;;;5084723;28;20294;-82
2023/10/11 10:26:43;;;;;;;10.50;10.20;;;27.20;99.90;;;;;;5085270;28;20296;-81
2023/10/11 10:29:13;;;;;;;10.50;10.20;;;27.30;99.90;;;;;;5084428;28;20230;-82
2023/10/11 10:32:06;;;;;;;10.52;10.23;;;27.50;99.90;;;;;;5087477;28;20290;-81
2023/10/11 10:37:51;;;;;;;10.90;10.60;;;27.60;99.90;;;;;;5086273;28;20320;-81
2023/10/11 10:40:24;;;;;;;10.70;10.40;;;27.90;99.90;;;;;;5086185;28;20228;-82
2023/10/11 10:46:03;;;;;;;10.60;10.30;;;28.20;99.90;;;;;;5083906;28;20229;-82
2023/10/11 10:48:39;;;;;;;10.57;10.27;;;28.40;99.90;;;;;;5085110;28;20226;-82
2023/10/11 10:51:12;;;;;;;10.45;10.15;;;28.40;99.90;;;;;;5084856;28;20253;-82
2023/10/11 10:53:39;;;;;;;10.68;10.38;;;28.40;99.90;;;;;;5084628;28;20241;-81
2023/10/11 10:58:47;;;;;;;11.40;11.10;;;28.60;99.90;;;;;;5084772;28;20225;-81
2023/10/11 11:01:13;;;;;;;11.30;11.00;;;28.60;99.90;;;;;;5085449;28;20236;-81
2023/10/11 11:03:41;;;;;;;11.10;10.80;;;28.60;99.90;;;;;;5083117;28;20321;-81
2023/10/11 11:06:11;;;;;;;11.32;11.02;;;28.50;99.90;;;;;;5083657;28;20269;-81
2023/10/11 11:08:39;;;;;;;11.27;10.98;;;28.30;99.90;;;;;;5084399;28;20222;-81
2023/10/11 11:11:19;;;;;;;11.25;10.95;;;28.40;99.90;;;;;;5084026;28;20305;-82
2023/10/11 11:16:32;;;;;;;11.27;10.98;;;28.90;99.90;;;;;;5083009;28;20297;-81
2023/10/11 11:19:16;;;;;;;10.98;10.68;;;29.10;99.90;;;;;;5083841;28;20284;-81
2023/10/11 11:21:44;;;;;;;10.70;10.40;;;29.10;99.90;;;;;;5084300;28;20226;-81
2023/10/11 11:24:19;;;;;;;10.80;10.50;;;29.00;99.90;;;;;;5083908;28;20241;-81
2023/10/11 11:26:45;;;;;;;11.07;10.77;;;29.00;99.90;;;;;;5084795;28;20261;-81
2023/10/11 11:29:31;;;;;;;10.90;10.60;;;28.90;99.90;;;;;;5084195;28;20234;-81
2023/10/11 11:31:59;;;;;;;10.60;10.30;;;29.20;99.90;;;;;;5084855;28;20236;-82
2023/10/11 11:34:34;;;;;;;11.02;10.73;;;29.50;99.90;;;;;;5082481;28;20234;-79
2023/10/11 11:37:06;;;;;;;10.90;10.60;;;29.80;99.90;;;;;;5079407;28;20256;-79
2023/10/11 11:39:39;;;;;;;10.88;10.57;;;29.60;99.90;;;;;;5079162;28;20258;-78
2023/10/11 11:42:09;;;;;;;10.70;10.40;;;29.50;99.90;;;;;;5085542;28;20670;-82
2023/10/11 11:44:38;;;;;;;10.55;10.25;;;29.60;99.90;;;;;;5094161;28;20226;-81
2023/10/11 11:47:05;;;;;;;10.82;10.52;;;29.80;99.90;;;;;;5090250;28;20230;-81
2023/10/11 11:52:19;;;;;;;10.90;10.60;;;30.20;99.90;;;;;;5085409;28;20209;-83
2023/10/11 11:54:47;;;;;;;11.50;11.15;;;30.20;99.90;;;;;;5084722;28;20294;-81
2023/10/11 11:57:16;;;;;;;10.90;10.60;;;30.30;99.90;;;;;;5088797;28;20245;-85
2023/10/11 11:59:43;;;;;;;10.90;10.60;;;30.30;99.90;;;;;;5086889;28;20232;-85
2023/10/11 12:04:53;;;;;;;11.15;10.85;;;30.20;99.90;;;;;;5084976;28;20240;-85
2023/10/11 12:07:24;;;;;;;11.18;10.88;;;30.00;99.90;;;;;;5084796;28;20238;-86
2023/10/11 12:09:55;;;;;;;11.10;10.80;;;30.00;99.90;;;;;;5085465;28;20230;-85
2023/10/11 12:12:25;;;;;;;11.05;10.75;;;29.90;99.90;;;;;;5085388;28;20226;-85
2023/10/11 12:14:53;;;;;;;10.95;10.65;;;30.00;99.90;;;;;;5085245;28;20253;-85
2023/10/11 12:17:21;;;;;;;10.80;10.50;;;29.60;99.90;;;;;;5083670;28;20292;-85
2023/10/11 12:19:53;;;;;;;10.90;10.60;;;29.50;99.90;;;;;;5084363;28;20234;-86
2023/10/11 12:22:29;;;;;;;10.80;10.50;;;29.60;99.90;;;;;;5084804;28;20227;-86
2023/10/11 12:25:01;;;;;;;10.70;10.40;;;29.90;99.90;;;;;;5088632;28;20245;-84
2023/10/11 12:32:54;;;;;;;10.98;10.68;;;29.90;99.90;;;;;;5086783;28;20233;-83
2023/10/11 12:35:23;;;;;;;11.07;10.77;;;30.00;99.90;;;;;;5090613;28;20262;-82
2023/10/11 12:37:52;;;;;;;10.98;10.68;;;30.00;99.90;;;;;;5088038;28;20290;-82
2023/10/11 12:40:28;;;;;;;11.02;10.73;;;30.00;99.90;;;;;;5092704;28;20241;-82
2023/10/11 12:45:42;;;;;;;10.90;10.60;;;30.20;99.90;;;;;;5086500;28;20227;-82
2023/10/11 12:48:10;;;;;;;11.15;10.85;;;30.40;99.90;;;;;;5083804;28;20293;-80
2023/10/11 12:50:37;;;;;;;10.90;10.60;;;30.10;99.90;;;;;;5084985;28;20230;-81
2023/10/11 12:53:18;;;;;;;10.77;10.48;;;29.90;99.90;;;;;;5076591;28;20229;-84
2023/10/11 12:55:53;;;;;;;10.60;10.30;;;29.80;99.90;;;;;;5085465;28;20230;-83
2023/10/11 12:58:27;;;;;;;11.00;10.70;;;29.70;99.90;;;;;;5085436;28;20245;-83
2023/10/11 13:00:58;;;;;;;11.00;10.70;;;30.10;99.90;;;;;;5085961;28;20238;-83
2023/10/11 13:03:29;;;;;;;10.88;10.57;;;30.10;99.90;;;;;;5085953;28;20280;-81
2023/10/11 13:06:03;;;;;;;10.65;10.35;;;30.20;99.90;;;;;;5083063;28;20234;-81
2023/10/11 13:08:33;;;;;;;10.75;10.45;;;30.20;99.90;;;;;;5083701;28;20253;-80
2023/10/11 13:11:01;;;;;;;10.70;10.40;;;30.00;99.90;;;;;;5084095;28;20238;-81
2023/10/11 13:13:28;;;;;;;10.93;10.63;;;29.80;99.90;;;;;;5075318;28;20226;-80
2023/10/11 13:15:58;;;;;;;10.80;10.50;;;29.80;99.90;;;;;;5083015;28;20328;-80
2023/10/11 13:18:27;;;;;;;10.88;10.57;;;30.10;99.90;;;;;;5083350;28;20226;-80
2023/10/11 13:20:57;;;;;;;11.00;10.70;;;30.20;99.90;;;;;;5077952;28;20260;-82
2023/10/11 13:26:07;;;;;;;10.70;10.40;;;30.30;99.90;;;;;;5072860;28;20234;-79
2023/10/11 13:28:35;;;;;;;10.60;10.30;;;30.40;99.90;;;;;;5080798;28;20320;-80
2023/10/11 13:31:03;;;;;;;10.63;10.32;;;30.40;99.90;;;;;;5083391;28;20333;-80
2023/10/11 13:33:33;;;;;;;10.60;10.30;;;30.40;99.90;;;;;;5083685;28;20227;-84
2023/10/11 13:36:12;;;;;;;10.68;10.38;;;30.20;99.90;;;;;;5085834;28;20233;-83
2023/10/11 13:38:44;;;;;;;10.60;10.30;;;30.00;99.90;;;;;;5085774;28;20236;-85
2023/10/11 13:41:13;;;;;;;10.60;10.30;;;29.90;99.90;;;;;;5085234;28;20233;-83
2023/10/11 13:43:40;;;;;;;10.80;10.50;;;29.90;99.90;;;;;;5086270;28;20222;-84
2023/10/11 13:46:10;;;;;;;10.50;10.20;;;29.80;99.90;;;;;;5085404;28;20238;-83
2023/10/11 13:48:40;;;;;;;10.30;10.00;;;29.80;99.90;;;;;;5084965;28;20237;-83
2023/10/11 13:51:16;;;;;;;10.13;9.82;;;29.80;99.90;;;;;;5084512;28;20259;-83
2023/10/11 13:53:56;;;;;;;10.30;10.00;;;29.80;99.90;;;;;;5092474;28;20222;-85
2023/10/11 13:56:31;;;;;;;10.30;10.00;;;30.00;99.90;;;;;;5087805;28;20237;-84
2023/10/11 14:09:45;;;;;;;10.18;9.88;;;30.10;99.90;;;;;;5088502;28;20234;-84
2023/10/11 14:12:18;;;;;;;10.40;10.10;;;30.20;99.90;;;;;;5087528;28;20288;-85
2023/10/11 14:14:46;;;;;;;10.38;10.07;;;30.40;99.90;;;;;;5089691;28;20313;-83
2023/10/11 14:17:15;;;;;;;10.70;10.40;;;30.20;99.90;;;;;;5085247;28;20416;-81
2023/10/11 14:19:45;;;;;;;10.90;10.60;;;30.10;99.90;;;;;;5086002;28;20455;-80
2023/10/11 14:22:12;;;;;;;10.70;10.40;;;30.00;99.90;;;;;;5086423;28;20226;-84
2023/10/11 14:24:41;;;;;;;10.45;10.15;;;29.60;99.90;;;;;;5093466;28;20222;-83
2023/10/11 14:27:20;;;;;;;10.43;10.13;;;29.40;99.90;;;;;;5096191;28;20248;-84
2023/10/11 14:29:51;;;;;;;10.77;10.48;;;29.60;99.90;;;;;;5090466;28;20244;-84
2023/10/11 14:32:18;;;;;;;10.70;10.40;;;29.70;99.90;;;;;;5087365;28;20261;-84
2023/10/11 14:35:03;;;;;;;10.70;10.40;;;29.90;99.90;;;;;;5085959;28;20218;-85
2023/10/11 14:37:31;;;;;;;10.68;10.38;;;30.00;99.90;;;;;;5090845;28;20237;-85
2023/10/11 14:39:59;;;;;;;10.52;10.23;;;29.80;99.90;;;;;;5095812;28;20237;-84
2023/10/11 14:42:29;;;;;;;10.65;10.35;;;29.80;99.90;;;;;;5088957;28;20239;-84
2023/10/11 14:44:58;;;;;;;10.50;10.20;;;29.80;99.90;;;;;;5087977;28;20230;-84
2023/10/11 14:47:25;;;;;;;10.60;10.30;;;29.80;99.90;;;;;;5087620;28;20234;-84
2023/10/11 14:50:10;;;;;;;10.50;10.20;;;29.90;99.90;;;;;;5087389;28;20292;-85
2023/10/11 14:52:51;;;;;;;10.50;10.20;;;30.00;99.90;;;;;;5070665;28;20370;-84
2023/10/11 14:55:20;;;;;;;10.20;9.90;;;29.60;99.90;;;;;;5075582;28;20225;-86
2023/10/11 14:57:50;;;;;;;10.30;10.00;;;30.10;99.90;;;;;;5070612;28;20230;-86
2023/10/11 15:00:36;;;;;;;10.38;10.07;;;29.80;99.90;;;;;;5076280;28;20253;-85
2023/10/11 15:03:06;;;;;;;10.70;10.40;;;29.90;99.90;;;;;;5077236;28;20227;-86
2023/10/11 15:05:35;;;;;;;10.48;10.18;;;29.60;99.90;;;;;;5077114;28;20235;-84
2023/10/11 15:08:04;;;;;;;10.30;10.00;;;29.20;99.90;;;;;;5075245;28;20238;-85
2023/10/11 15:10:43;;;;;;;10.40;10.10;;;29.30;99.90;;;;;;5068881;28;21148;-85
2023/10/11 15:13:21;;;;;;;10.13;9.82;;;29.20;99.90;;;;;;5070737;28;20250;-85
2023/10/11 15:18:39;;;;;;;10.30;10.00;;;29.00;99.90;;;;;;5064483;28;20215;-87
2023/10/11 15:21:09;;;;;;;10.40;10.10;;;29.20;99.90;;;;;;5064032;28;20237;-87
2023/10/11 15:23:36;;;;;;;10.32;10.02;;;29.20;99.90;;;;;;5069592;28;20261;-81
2023/10/11 15:26:06;;;;;;;10.20;9.90;;;29.10;99.90;;;;;;5082970;28;20234;-81
2023/10/11 15:28:35;;;;;;;10.40;10.10;;;28.90;99.90;;;;;;5084153;28;20266;-83
2023/10/11 15:31:08;;;;;;;10.20;9.90;;;28.80;99.90;;;;;;5084755;28;20237;-82
2023/10/11 15:33:37;;;;;;;10.13;9.82;;;28.90;99.90;;;;;;5084860;28;20230;-81
2023/10/11 15:36:07;;;;;;;10.20;9.90;;;28.90;99.90;;;;;;5085530;28;20218;-82